Time;durP1;ratioP1;P1;durP2;ratioP2;P2;SDS_P1;SDS_P2;PMS_P1;PMS_P2;Temp;Humidity;BMP_temperature;BMP_pressure;BME280_temperature;BME280_humidity;BME280_pressure;Samples;Min_cycle;Max_cycle;Signal;HPM_P1;HPM_P2
2021/06/21 00:02:26;;;;;;;4.15;3.80;;;;;;;21.37;60.59;95989.45;1655646;87;20934;-81
2021/06/21 00:04:53;;;;;;;4.50;4.10;;;;;;;21.36;61.02;95991.84;1654452;86;21000;-80
2021/06/21 00:07:19;;;;;;;5.90;4.72;;;;;;;21.31;60.95;95985.19;1662909;86;20940;-80
2021/06/21 00:09:45;;;;;;;4.85;4.45;;;;;;;21.27;61.08;95985.45;1655015;86;21034;-80
2021/06/21 00:12:13;;;;;;;4.85;4.17;;;;;;;21.20;61.31;95984.34;1656331;86;21252;-80
2021/06/21 00:14:39;;;;;;;6.30;5.03;;;;;;;21.14;61.45;95977.95;1663068;86;20905;-81
2021/06/21 00:17:05;;;;;;;5.12;4.30;;;;;;;21.05;61.66;95969.75;1662993;86;21253;-80
2021/06/21 00:19:31;;;;;;;5.05;4.30;;;;;;;21.02;61.70;95971.59;1655144;85;21031;-80
2021/06/21 00:21:57;;;;;;;4.12;3.72;;;;;;;21.01;61.96;95966.56;1655513;87;21004;-80
2021/06/21 00:24:22;;;;;;;5.42;4.65;;;;;;;20.98;62.27;95969.17;1655527;87;21039;-80
2021/06/21 00:26:48;;;;;;;5.05;4.40;;;;;;;20.95;62.67;95965.73;1636472;87;21020;-80
2021/06/21 00:29:15;;;;;;;4.47;4.08;;;;;;;20.94;62.50;95960.97;1655431;86;20997;-81
2021/06/21 00:31:41;;;;;;;4.70;4.30;;;;;;;20.95;62.36;95955.95;1655542;86;20905;-81
2021/06/21 00:34:07;;;;;;;5.70;4.35;;;;;;;21.03;62.16;95952.58;1655507;86;20942;-80
2021/06/21 00:36:33;;;;;;;5.75;4.15;;;;;;;21.15;61.79;95955.77;1663086;86;20999;-80
2021/06/21 00:38:59;;;;;;;4.87;4.25;;;;;;;21.26;61.70;95950.83;1663154;86;21330;-80
2021/06/21 00:41:24;;;;;;;4.10;3.70;;;;;;;21.37;61.39;95948.49;1666368;85;21032;-80
2021/06/21 00:43:50;;;;;;;4.42;4.08;;;;;;;21.48;61.08;95946.69;1666620;85;21005;-81
2021/06/21 00:46:17;;;;;;;5.20;4.03;;;;;;;21.58;60.68;95948.01;1663079;86;21338;-81
2021/06/21 00:48:43;;;;;;;6.58;4.17;;;;;;;21.67;60.58;95941.16;1634697;87;21012;-80
2021/06/21 00:51:09;;;;;;;4.25;3.92;;;;;;;21.74;60.27;95946.19;1662670;86;21028;-81
2021/06/21 00:53:35;;;;;;;4.58;4.17;;;;;;;21.83;60.10;95940.66;1634754;88;21025;-80
2021/06/21 00:56:00;;;;;;;4.50;4.10;;;;;;;21.88;60.03;95941.45;1661902;86;20993;-80
2021/06/21 00:58:27;;;;;;;5.00;4.50;;;;;;;21.94;59.70;95948.05;1645235;85;21036;-81
2021/06/21 01:00:53;;;;;;;4.83;4.20;;;;;;;22.01;59.57;95942.78;1654706;86;21071;-81
2021/06/21 01:03:19;;;;;;;4.50;4.10;;;;;;;22.05;59.53;95947.83;1662865;86;20992;-80
2021/06/21 01:05:44;;;;;;;6.65;4.70;;;;;;;22.11;59.46;95934.06;1644100;86;21022;-80
2021/06/21 01:08:10;;;;;;;4.87;4.45;;;;;;;22.18;59.22;95930.64;1662994;86;20954;-81
2021/06/21 01:10:38;;;;;;;4.95;4.55;;;;;;;22.18;59.22;95930.64;1655003;87;20908;-80
2021/06/21 01:13:43;;;;;;;4.83;4.30;;;;;;;22.22;59.03;95933.01;1662852;86;20957;-81
2021/06/21 01:16:39;;;;;;;5.25;4.75;;;;;;;22.23;59.08;95931.95;1608238;88;21390;-80
2021/06/21 01:19:29;;;;;;;5.22;4.83;;;;;;;22.27;58.93;95929.55;1637670;87;20954;-80
2021/06/21 01:22:36;;;;;;;5.17;4.65;;;;;;;22.30;58.83;95925.08;1694869;84;21052;-81
2021/06/21 01:25:22;;;;;;;6.00;5.40;;;;;;;22.31;59.01;95925.34;1677523;85;20904;-81
2021/06/21 01:28:00;;;;;;;5.80;5.17;;;;;;;22.33;58.98;95923.22;1650349;86;20971;-81
2021/06/21 01:30:58;;;;;;;5.78;5.28;;;;;;;22.36;58.92;95922.67;1689651;84;21022;-81
2021/06/21 01:33:23;;;;;;;4.92;4.53;;;;;;;22.36;59.01;95920.82;1690004;84;20946;-80
2021/06/21 01:36:00;;;;;;;5.67;5.05;;;;;;;22.33;59.05;95924.01;1689646;84;20899;-80
2021/06/21 01:38:42;;;;;;;5.03;4.62;;;;;;;22.32;58.95;95917.13;1689484;85;20962;-80
2021/06/21 01:41:13;;;;;;;5.65;5.15;;;;;;;22.34;59.00;95916.33;1684220;84;21359;-81
2021/06/21 01:43:40;;;;;;;5.53;5.03;;;;;;;22.39;58.79;95907.05;1689959;84;21014;-80
2021/06/21 01:46:09;;;;;;;6.10;5.60;;;;;;;22.43;58.91;95900.15;1671018;85;21283;-81
2021/06/21 01:48:41;;;;;;;5.87;5.28;;;;;;;22.45;58.73;95893.26;1689973;84;20967;-80
2021/06/21 01:51:07;;;;;;;5.90;5.40;;;;;;;22.49;58.62;95901.48;1670392;85;21019;-80
2021/06/21 01:53:34;;;;;;;5.28;4.78;;;;;;;22.50;58.57;95894.59;1677158;85;21247;-80
2021/06/21 01:56:16;;;;;;;5.53;5.03;;;;;;;22.55;58.34;95899.08;1689120;85;20955;-80
2021/06/21 01:58:42;;;;;;;6.25;5.17;;;;;;;22.57;58.22;95883.70;1673717;85;20984;-80
2021/06/21 02:01:17;;;;;;;6.08;5.15;;;;;;;22.61;58.20;95886.07;1695251;85;21003;-80
2021/06/21 02:03:49;;;;;;;5.65;5.15;;;;;;;22.63;57.98;95882.12;1660417;85;20972;-81
2021/06/21 02:06:15;;;;;;;5.60;5.17;;;;;;;22.67;57.85;95877.86;1653222;86;21333;-81
2021/06/21 02:08:42;;;;;;;5.10;4.70;;;;;;;22.69;57.96;95870.44;1641337;86;21078;-81
2021/06/21 02:11:08;;;;;;;5.20;4.80;;;;;;;22.71;57.83;95873.60;1653255;86;20989;-80
2021/06/21 02:13:34;;;;;;;5.58;5.08;;;;;;;22.70;57.79;95872.55;1671644;85;21053;-80
2021/06/21 02:16:00;;;;;;;5.20;4.80;;;;;;;22.70;57.66;95872.55;1679398;85;20950;-80
2021/06/21 02:18:26;;;;;;;4.75;4.35;;;;;;;22.71;57.55;95870.95;1700573;84;21289;-80
2021/06/21 02:20:53;;;;;;;6.12;5.50;;;;;;;22.73;57.66;95870.68;1663834;86;21034;-80
2021/06/21 02:23:23;;;;;;;5.30;4.80;;;;;;;22.73;57.72;95870.68;1661911;86;21006;-80
2021/06/21 02:25:50;;;;;;;5.33;4.83;;;;;;;22.72;57.90;95866.45;1624189;86;20989;-80
2021/06/21 02:28:20;;;;;;;5.50;5.00;;;;;;;22.69;58.00;95869.11;1683988;85;20946;-81
2021/06/21 02:30:49;;;;;;;4.97;4.58;;;;;;;22.69;57.76;95870.44;1675746;85;21013;-80
2021/06/21 02:33:15;;;;;;;6.25;5.65;;;;;;;22.69;57.95;95869.11;1676507;85;21013;-80
2021/06/21 02:35:42;;;;;;;5.12;4.72;;;;;;;22.67;58.00;95866.48;1654710;85;21298;-80
2021/06/21 02:38:08;;;;;;;5.50;5.03;;;;;;;22.65;58.04;95871.25;1692160;85;21016;-80
2021/06/21 02:40:34;;;;;;;6.00;5.25;;;;;;;22.62;58.33;95863.33;1663000;86;21339;-81
2021/06/21 02:43:00;;;;;;;6.05;5.45;;;;;;;22.59;58.41;95866.48;1683966;85;21029;-81
2021/06/21 02:45:26;;;;;;;6.00;5.37;;;;;;;22.59;58.42;95867.02;1692026;84;20936;-80
2021/06/21 02:47:52;;;;;;;5.87;5.37;;;;;;;22.59;58.79;95865.70;1662964;86;20955;-80
2021/06/21 02:50:17;;;;;;;6.22;5.70;;;;;;;22.58;58.56;95862.79;1684235;85;21100;-80
2021/06/21 02:53:30;;;;;;;6.58;5.72;;;;;;;22.58;58.75;95855.64;1676136;85;21292;-80
2021/06/21 02:55:59;;;;;;;;;;;;;;;22.55;58.91;95850.89;1656695;85;20955;-80
2021/06/21 02:58:28;;;;;;;5.30;4.85;;;;;;;22.51;59.33;95855.14;1665178;85;20298;-81
2021/06/21 03:00:57;;;;;;;6.62;5.75;;;;;;;22.44;59.61;95849.32;1667740;85;21273;-80
2021/06/21 03:03:25;;;;;;;5.90;5.33;;;;;;;22.36;59.85;95847.24;1683398;85;20925;-81
2021/06/21 03:05:51;;;;;;;5.53;5.03;;;;;;;22.30;60.07;95853.09;1677964;85;20985;-80
2021/06/21 03:08:19;;;;;;;5.83;5.35;;;;;;;22.26;60.29;95844.61;1677846;85;20941;-80
2021/06/21 03:10:44;;;;;;;6.37;5.90;;;;;;;22.21;60.35;95853.89;1658383;85;21002;-80
2021/06/21 03:13:11;;;;;;;6.92;6.17;;;;;;;22.15;60.66;95857.09;1676581;85;21304;-80
2021/06/21 03:15:37;;;;;;;5.95;5.42;;;;;;;22.08;60.72;95858.67;1676367;85;20975;-80
2021/06/21 03:18:04;;;;;;;6.72;5.97;;;;;;;22.05;61.40;95863.70;1692454;84;20953;-80
2021/06/21 03:20:30;;;;;;;6.62;6.10;;;;;;;21.96;61.69;95865.25;1662423;86;21386;-80
2021/06/21 03:22:57;;;;;;;6.58;5.97;;;;;;;21.88;61.84;95867.39;1664969;85;20976;-80
2021/06/21 03:25:28;;;;;;;6.03;5.53;;;;;;;21.81;61.83;95873.48;1692232;85;20944;-80
2021/06/21 03:27:56;;;;;;;6.58;5.78;;;;;;;21.75;62.17;95872.41;1684199;85;20936;-80
2021/06/21 03:30:22;;;;;;;6.70;6.10;;;;;;;21.71;62.29;95877.44;1692130;84;21017;-80
2021/06/21 03:32:51;;;;;;;6.45;5.80;;;;;;;21.65;62.42;95878.51;1662909;86;21039;-80
2021/06/21 03:35:16;;;;;;;6.53;6.00;;;;;;;21.60;62.65;95885.09;1684544;85;21293;-80
2021/06/21 03:37:41;;;;;;;7.05;6.35;;;;;;;21.51;62.84;95880.08;1692124;84;20899;-80
2021/06/21 03:40:09;;;;;;;6.83;6.28;;;;;;;21.41;63.12;95882.16;1661459;86;20940;-80
2021/06/21 03:42:36;;;;;;;6.50;6.00;;;;;;;21.33;63.65;95873.45;1684239;85;21012;-80
2021/06/21 03:45:05;;;;;;;6.28;5.72;;;;;;;21.25;63.98;95872.09;1692322;85;20997;-81
2021/06/21 03:47:32;;;;;;;6.22;5.72;;;;;;;21.18;64.11;95869.41;1683153;85;20974;-80
2021/06/21 03:49:57;;;;;;;6.70;6.00;;;;;;;21.14;64.32;95867.00;1676510;85;20957;-80
2021/06/21 03:52:23;;;;;;;5.85;5.35;;;;;;;21.09;64.49;95873.08;1676430;85;20953;-81
2021/06/21 03:54:49;;;;;;;6.10;5.60;;;;;;;21.05;64.80;95867.27;1692207;84;20970;-80
2021/06/21 03:57:14;;;;;;;6.78;6.17;;;;;;;20.98;65.01;95866.17;1642651;86;21006;-80
2021/06/21 03:59:40;;;;;;;6.25;5.75;;;;;;;20.93;65.16;95868.80;1662932;85;21036;-80
2021/06/21 04:02:06;;;;;;;7.83;6.03;;;;;;;20.89;65.12;95868.53;1692339;84;20960;-80
2021/06/21 04:04:32;;;;;;;7.60;6.42;;;;;;;20.91;65.37;95862.98;1662971;86;21306;-80
2021/06/21 04:06:57;;;;;;;6.12;5.55;;;;;;;20.92;65.39;95870.65;1662971;86;20942;-80
2021/06/21 04:09:23;;;;;;;6.95;6.22;;;;;;;20.92;65.54;95869.86;1671034;85;20918;-80
2021/06/21 04:11:49;;;;;;;6.45;5.83;;;;;;;20.91;65.75;95873.55;1669187;85;20947;-80
2021/06/21 04:14:15;;;;;;;6.95;6.28;;;;;;;20.88;65.88;95870.11;1665839;85;20939;-80
2021/06/21 04:16:41;;;;;;;6.08;5.58;;;;;;;20.86;65.79;95874.86;1692262;85;20904;-80
2021/06/21 04:19:08;;;;;;;6.30;5.37;;;;;;;20.85;66.11;95871.95;1662897;86;21937;-80
2021/06/21 04:21:33;;;;;;;6.35;5.85;;;;;;;20.84;66.25;95873.02;1662743;86;21088;-80
2021/06/21 04:23:59;;;;;;;6.33;5.72;;;;;;;20.87;66.57;95873.28;1660341;86;20988;-80
2021/06/21 04:26:25;;;;;;;6.05;5.55;;;;;;;20.87;66.81;95877.24;1673802;85;20932;-80
2021/06/21 04:28:51;;;;;;;7.97;6.47;;;;;;;20.85;67.20;95881.99;1684579;85;21277;-80
2021/06/21 04:31:18;;;;;;;6.90;6.30;;;;;;;20.83;67.04;95892.02;1691891;83;21005;-80
2021/06/21 04:33:44;;;;;;;6.42;5.92;;;;;;;20.84;67.15;95902.05;1684206;85;21032;-80
2021/06/21 04:36:10;;;;;;;6.78;6.20;;;;;;;20.90;67.46;95907.09;1692130;85;20996;-80
2021/06/21 04:38:36;;;;;;;6.92;6.03;;;;;;;20.96;67.77;95910.01;1663127;86;21368;-80
2021/06/21 04:41:02;;;;;;;7.03;6.42;;;;;;;20.97;67.94;95904.98;1653385;86;21015;-80
2021/06/21 04:43:28;;;;;;;7.35;6.65;;;;;;;20.98;68.09;95899.97;1674921;85;21019;-80
2021/06/21 04:45:54;;;;;;;7.05;6.45;;;;;;;20.97;68.38;95893.63;1672210;85;20987;-80
2021/06/21 04:48:19;;;;;;;6.72;6.10;;;;;;;20.96;68.38;95886.77;1652397;86;20982;-80
2021/06/21 04:50:45;;;;;;;6.33;5.72;;;;;;;20.98;68.52;95888.61;1655780;85;20931;-80
2021/06/21 04:53:12;;;;;;;5.83;5.33;;;;;;;21.01;68.49;95886.80;1672249;86;21285;-80
2021/06/21 04:55:38;;;;;;;6.33;5.78;;;;;;;21.05;68.56;95884.43;1691583;84;20982;-80
2021/06/21 04:58:04;;;;;;;6.78;6.20;;;;;;;21.09;68.46;95893.42;1682283;85;20929;-80
2021/06/21 05:00:30;;;;;;;7.37;6.70;;;;;;;21.17;68.87;95894.25;1650465;86;21009;-80
2021/06/21 05:02:56;;;;;;;6.62;6.05;;;;;;;21.23;68.94;95899.27;1678538;85;21346;-80
2021/06/21 05:05:22;;;;;;;6.80;6.30;;;;;;;21.26;69.08;95904.59;1676674;85;20928;-81
2021/06/21 05:07:53;;;;;;;6.30;5.70;;;;;;;21.26;69.19;95905.38;1662386;85;21030;-81
2021/06/21 05:10:21;;;;;;;6.70;6.03;;;;;;;21.29;69.24;95908.03;1664120;86;20946;-80
2021/06/21 05:12:47;;;;;;;7.25;6.55;;;;;;;21.33;69.11;95915.72;1661152;85;20956;-80
2021/06/21 05:15:14;;;;;;;7.83;7.12;;;;;;;21.42;69.10;95923.92;1660331;86;21009;-80
2021/06/21 05:17:40;;;;;;;6.65;6.05;;;;;;;21.46;68.80;95926.30;1662909;85;21186;-80
2021/06/21 05:20:07;;;;;;;6.87;6.35;;;;;;;21.47;69.20;95924.72;1650549;86;21342;-80
2021/06/21 05:22:34;;;;;;;7.60;5.90;;;;;;;21.46;69.50;95923.13;1666015;85;21346;-80
2021/06/21 05:25:00;;;;;;;6.78;6.10;;;;;;;21.45;69.85;95922.07;1647004;85;21023;-80
2021/06/21 05:27:30;;;;;;;6.67;6.03;;;;;;;21.44;70.12;95919.16;1665895;85;20943;-80
2021/06/21 05:29:57;;;;;;;6.40;5.80;;;;;;;21.46;70.17;95916.52;1681656;85;20992;-80
2021/06/21 05:32:23;;;;;;;6.62;6.10;;;;;;;21.48;70.01;95916.29;1667824;85;21380;-80
2021/06/21 05:34:49;;;;;;;6.75;6.15;;;;;;;21.51;70.18;95921.05;1668523;85;20995;-80
2021/06/21 05:37:15;;;;;;;6.97;6.28;;;;;;;21.51;70.39;95923.69;1668502;85;21308;-80
2021/06/21 05:39:40;;;;;;;7.08;6.17;;;;;;;21.51;70.75;95925.80;1668549;85;20943;-80
2021/06/21 05:42:08;;;;;;;6.42;5.85;;;;;;;21.53;71.17;95930.30;1666839;85;20980;-80
2021/06/21 05:44:36;;;;;;;7.12;6.00;;;;;;;21.56;71.37;95928.45;1668463;85;20964;-80
2021/06/21 05:47:03;;;;;;;6.55;5.87;;;;;;;21.63;71.69;95924.74;1668443;85;21289;-80
2021/06/21 05:49:29;;;;;;;6.05;5.55;;;;;;;21.68;71.39;95922.13;1650141;86;20920;-80
2021/06/21 05:51:56;;;;;;;6.58;6.00;;;;;;;21.72;71.48;95923.98;1667674;85;21031;-81
2021/06/21 05:54:23;;;;;;;7.05;6.45;;;;;;;21.79;71.79;95921.06;1668487;85;20920;-80
2021/06/21 05:56:49;;;;;;;7.65;6.87;;;;;;;21.83;71.73;95920.83;1668285;85;20940;-80
2021/06/21 05:59:14;;;;;;;6.78;6.25;;;;;;;21.86;71.77;95916.32;1668491;85;21245;-80
2021/06/21 06:01:41;;;;;;;6.60;5.95;;;;;;;21.88;71.73;95915.00;1668290;85;21035;-81
2021/06/21 06:04:06;;;;;;;6.97;6.40;;;;;;;21.94;71.71;95915.78;1668310;85;20948;-80
2021/06/21 06:06:32;;;;;;;6.35;5.87;;;;;;;22.00;71.85;95913.42;1668575;85;20937;-80
2021/06/21 06:08:58;;;;;;;6.80;6.30;;;;;;;22.08;71.72;95918.72;1668523;85;20920;-80
2021/06/21 06:11:23;;;;;;;7.45;6.83;;;;;;;22.17;71.61;95919.79;1667829;85;20969;-80
2021/06/21 06:13:49;;;;;;;7.15;6.45;;;;;;;22.22;71.65;95918.98;1668564;85;20991;-80
2021/06/21 06:16:15;;;;;;;6.62;6.12;;;;;;;22.30;71.37;95927.20;1668498;85;21289;-80
2021/06/21 06:18:41;;;;;;;6.03;5.53;;;;;;;22.36;71.37;95925.33;1668349;86;20929;-81
2021/06/21 06:21:06;;;;;;;6.30;5.80;;;;;;;22.44;71.16;95923.44;1665258;85;20988;-80
2021/06/21 06:23:32;;;;;;;7.05;6.47;;;;;;;22.57;70.86;95923.42;1653429;86;20956;-80
2021/06/21 06:25:58;;;;;;;6.85;6.33;;;;;;;22.67;71.06;95924.73;1654879;87;21036;-80
2021/06/21 06:28:24;;;;;;;7.28;6.58;;;;;;;22.70;70.56;95922.34;1653085;86;21311;-81
2021/06/21 06:30:49;;;;;;;7.92;7.08;;;;;;;22.79;70.35;95918.61;1654748;87;21035;-80
2021/06/21 06:33:15;;;;;;;6.37;5.80;;;;;;;22.84;70.77;95920.48;1654757;86;21011;-81
2021/06/21 06:35:41;;;;;;;7.05;6.37;;;;;;;22.91;70.72;95922.30;1651695;86;20948;-80
2021/06/21 06:38:06;;;;;;;6.72;6.22;;;;;;;22.99;69.92;95924.39;1654473;87;21257;-80
2021/06/21 06:40:32;;;;;;;6.90;6.22;;;;;;;23.09;70.26;95922.22;1655716;86;20940;-81
2021/06/21 06:42:58;;;;;;;6.97;6.35;;;;;;;23.16;70.08;95922.73;1630566;87;20952;-80
2021/06/21 06:45:23;;;;;;;6.78;6.10;;;;;;;23.26;69.37;95914.72;1655057;86;20959;-80
2021/06/21 06:47:49;;;;;;;6.65;6.08;;;;;;;23.26;69.37;95914.72;1663262;86;21325;-81
2021/06/21 06:50:16;;;;;;;7.35;6.53;;;;;;;23.41;69.26;95922.59;1636941;86;21268;-81
2021/06/21 06:52:43;;;;;;;7.75;6.67;;;;;;;23.57;68.71;95921.46;1634688;88;20957;-80
2021/06/21 06:57:56;;;;;;;7.42;6.83;;;;;;;23.95;67.84;95920.42;1629183;86;20949;-80
2021/06/21 07:00:22;;;;;;;8.33;7.53;;;;;;;24.10;67.64;95918.97;1663097;86;20961;-80
2021/06/21 07:02:48;;;;;;;7.78;7.10;;;;;;;24.19;67.30;95917.83;1662600;86;21023;-80
2021/06/21 07:05:14;;;;;;;7.70;6.95;;;;;;;24.28;67.27;95920.14;1654312;86;21343;-80
2021/06/21 07:07:40;;;;;;;8.30;6.55;;;;;;;24.29;66.93;95918.28;1665025;86;21264;-81
2021/06/21 07:10:06;;;;;;;7.10;6.50;;;;;;;24.40;67.07;95919.23;1655641;86;20948;-81
2021/06/21 07:12:32;;;;;;;7.95;7.30;;;;;;;24.50;67.15;95916.50;1655619;86;21175;-81
2021/06/21 07:14:58;;;;;;;7.62;6.90;;;;;;;24.62;66.05;95909.48;1655719;86;20920;-81
2021/06/21 07:17:23;;;;;;;8.83;8.00;;;;;;;24.80;66.02;95910.61;1655535;87;20964;-80
2021/06/21 07:19:49;;;;;;;8.08;7.15;;;;;;;24.89;65.61;95911.55;1655728;86;21209;-81
2021/06/21 07:22:15;;;;;;;8.68;7.87;;;;;;;24.99;65.56;95911.44;1666544;85;21341;-81
2021/06/21 07:24:41;;;;;;;8.45;7.75;;;;;;;25.04;65.62;95907.95;1674761;86;20939;-81
2021/06/21 07:27:07;;;;;;;8.53;7.72;;;;;;;25.11;64.90;95909.20;1674303;85;20930;-80
2021/06/21 07:29:33;;;;;;;9.95;7.53;;;;;;;25.21;64.73;95913.58;1674657;85;20945;-81
2021/06/21 07:31:58;;;;;;;10.32;8.20;;;;;;;25.29;64.41;95906.85;1674629;86;21240;-81
2021/06/21 07:34:25;;;;;;;7.17;6.45;;;;;;;25.37;63.79;95904.87;1674149;85;21013;-81
2021/06/21 07:36:51;;;;;;;7.95;7.00;;;;;;;25.47;64.45;95903.41;1674533;85;20915;-81
2021/06/21 07:39:17;;;;;;;7.72;7.03;;;;;;;25.51;64.49;95909.73;1673366;85;21296;-81
2021/06/21 07:41:43;;;;;;;7.62;7.03;;;;;;;25.54;64.36;95905.16;1646112;86;21051;-80
2021/06/21 07:44:08;;;;;;;7.67;7.08;;;;;;;25.57;64.54;95907.27;1674292;85;20997;-81
2021/06/21 07:46:34;;;;;;;8.10;7.35;;;;;;;25.65;64.58;95915.91;1674578;85;20969;-81
2021/06/21 07:49:00;;;;;;;8.30;7.50;;;;;;;25.75;64.71;95918.21;1674368;85;21275;-81
2021/06/21 07:51:26;;;;;;;8.83;7.60;;;;;;;25.78;64.85;95926.40;1655337;85;21042;-81
2021/06/21 07:53:53;;;;;;;9.33;7.85;;;;;;;25.88;63.74;95918.81;1651102;86;21045;-81
2021/06/21 07:56:20;;;;;;;9.00;8.15;;;;;;;25.99;63.68;95918.34;1674463;85;21040;-81
2021/06/21 07:58:46;;;;;;;9.03;8.13;;;;;;;26.02;63.15;95919.09;1673808;85;21047;-81
2021/06/21 08:01:12;;;;;;;8.90;8.10;;;;;;;26.03;63.22;95916.70;1674221;85;21310;-81
2021/06/21 08:03:41;;;;;;;9.05;8.15;;;;;;;25.97;61.89;95915.19;1673941;85;20979;-81
2021/06/21 08:06:10;;;;;;;8.88;8.08;;;;;;;25.93;62.89;95920.06;1674028;85;21289;-81
2021/06/21 08:08:36;;;;;;;9.63;8.38;;;;;;;25.92;63.64;95917.94;1674184;84;20995;-81
2021/06/21 08:11:02;;;;;;;8.58;7.78;;;;;;;25.97;63.29;95917.06;1673020;85;21237;-80
2021/06/21 08:13:27;;;;;;;7.95;7.25;;;;;;;25.92;63.75;95919.27;1672626;85;20947;-81
2021/06/21 08:15:53;;;;;;;7.78;7.12;;;;;;;25.83;63.47;95914.34;1674501;85;21010;-80
2021/06/21 08:18:19;;;;;;;8.65;7.90;;;;;;;25.68;63.94;95919.34;1674672;85;20935;-80
2021/06/21 08:20:45;;;;;;;8.73;7.92;;;;;;;25.58;64.13;95912.83;1674522;85;21254;-80
2021/06/21 08:23:12;;;;;;;9.13;8.20;;;;;;;25.59;64.17;95914.41;1657659;85;21064;-81
2021/06/21 08:25:38;;;;;;;9.23;8.43;;;;;;;25.43;64.08;95917.03;1655640;87;21249;-81
2021/06/21 08:28:04;;;;;;;9.28;8.33;;;;;;;25.27;64.80;95909.80;1630169;87;20893;-81
2021/06/21 08:30:30;;;;;;;8.55;7.65;;;;;;;25.13;65.45;95914.23;1662808;86;21028;-80
2021/06/21 08:32:56;;;;;;;8.43;7.58;;;;;;;25.09;65.88;95912.69;1655151;86;20976;-81
2021/06/21 08:35:22;;;;;;;8.53;7.83;;;;;;;25.38;65.05;95907.27;1662959;85;20951;-81
2021/06/21 08:37:48;;;;;;;8.70;8.00;;;;;;;25.80;64.48;95912.80;1655003;86;20947;-81
2021/06/21 08:40:15;;;;;;;7.70;7.10;;;;;;;25.80;64.13;95910.94;1648121;86;21298;-81
2021/06/21 08:42:41;;;;;;;8.40;7.72;;;;;;;25.77;63.14;95918.17;1635623;86;21328;-81
2021/06/21 08:45:08;;;;;;;8.95;8.25;;;;;;;25.66;63.95;95915.37;1620182;88;21021;-81
2021/06/21 08:47:34;;;;;;;8.75;7.95;;;;;;;25.52;64.37;95916.63;1659342;85;21305;-81
2021/06/21 08:50:00;;;;;;;8.25;7.47;;;;;;;25.34;64.62;95922.73;1637531;86;20967;-81
2021/06/21 08:52:26;;;;;;;7.45;6.90;;;;;;;25.17;65.04;95923.75;1662315;86;20987;-81
2021/06/21 08:55:03;;;;;;;8.40;7.72;;;;;;;25.01;65.29;95918.63;1626561;88;21292;-81
2021/06/21 08:57:23;;;;;;;8.00;7.37;;;;;;;24.83;65.90;95920.67;1660116;86;20999;-80
2021/06/21 08:59:49;;;;;;;8.28;7.58;;;;;;;24.73;66.58;95918.11;1655310;86;21096;-81
2021/06/21 09:02:15;;;;;;;8.50;7.80;;;;;;;25.05;66.85;95920.17;1658682;86;20943;-81
2021/06/21 09:04:41;;;;;;;7.65;6.95;;;;;;;25.39;66.74;95922.69;1655413;87;21249;-80
2021/06/21 09:07:16;;;;;;;8.48;7.78;;;;;;;25.81;66.00;95918.38;1636457;87;20992;-81
2021/06/21 09:09:42;;;;;;;7.55;6.95;;;;;;;26.41;64.36;95913.95;1631374;87;20964;-81
2021/06/21 09:12:08;;;;;;;7.62;7.05;;;;;;;26.41;64.36;95913.95;1635970;87;20999;-81
2021/06/21 09:14:36;;;;;;;8.53;7.65;;;;;;;26.67;62.75;95903.61;1655614;86;20984;-80
2021/06/21 09:17:08;;;;;;;7.60;7.00;;;;;;;26.97;64.05;95903.56;1662799;86;20971;-81
2021/06/21 09:19:55;;;;;;;9.95;7.45;;;;;;;27.21;62.46;95902.84;1637054;87;20998;-81
2021/06/21 09:22:37;;;;;;;8.20;7.37;;;;;;;27.35;61.91;95893.48;1654687;86;21061;-80
2021/06/21 09:25:18;;;;;;;7.47;6.72;;;;;;;27.60;60.85;95900.12;1666651;85;20932;-81
2021/06/21 09:28:01;;;;;;;8.05;7.20;;;;;;;27.84;58.84;95899.09;1649486;86;21289;-81
2021/06/21 09:30:28;;;;;;;7.47;6.80;;;;;;;28.00;59.32;95898.42;1654179;86;21329;-81
2021/06/21 09:32:57;;;;;;;7.90;7.20;;;;;;;28.18;58.69;95895.31;1637545;86;21048;-81
2021/06/21 09:35:32;;;;;;;7.78;7.15;;;;;;;28.30;57.93;95899.55;1616011;87;21001;-81
2021/06/21 09:38:02;;;;;;;8.68;7.92;;;;;;;28.43;57.33;95901.11;1640742;87;20984;-81
2021/06/21 09:40:35;;;;;;;7.75;7.05;;;;;;;28.55;56.84;95900.00;1648517;86;20959;-81
2021/06/21 09:43:32;;;;;;;7.08;6.58;;;;;;;28.68;56.50;95903.13;1642462;86;21023;-81
2021/06/21 09:46:06;;;;;;;7.42;6.72;;;;;;;28.73;55.41;95899.52;1662836;86;20973;-81
2021/06/21 09:48:52;;;;;;;7.55;6.80;;;;;;;28.76;54.24;95899.69;1662945;86;20941;-81
2021/06/21 09:51:36;;;;;;;7.28;6.67;;;;;;;28.82;56.26;95891.78;1644196;86;20972;-81
2021/06/21 09:54:11;;;;;;;7.50;6.25;;;;;;;28.86;54.92;95888.75;1655551;86;21340;-81
2021/06/21 09:56:51;;;;;;;6.95;6.45;;;;;;;28.90;54.02;95880.34;1662790;86;20981;-81
2021/06/21 09:59:33;;;;;;;7.45;6.85;;;;;;;29.07;55.53;95885.49;1663138;86;21273;-81
2021/06/21 10:02:12;;;;;;;8.18;7.35;;;;;;;29.09;53.74;95886.75;1634338;88;21374;-81
2021/06/21 10:04:40;;;;;;;8.88;7.97;;;;;;;29.13;54.08;95886.39;1663211;85;20964;-81
2021/06/21 10:07:11;;;;;;;7.67;6.97;;;;;;;29.17;54.18;95886.55;1663099;86;21298;-81
2021/06/21 10:09:42;;;;;;;8.35;7.75;;;;;;;28.88;54.60;95877.19;1634642;88;21028;-81
2021/06/21 10:12:20;;;;;;;8.33;7.62;;;;;;;28.82;55.20;95878.97;1649972;86;21069;-81
2021/06/21 10:14:46;;;;;;;7.58;6.97;;;;;;;28.94;56.00;95873.81;1644236;87;20991;-81
2021/06/21 10:17:12;;;;;;;7.55;6.85;;;;;;;29.06;54.47;95875.34;1655214;86;20992;-81
2021/06/21 10:19:37;;;;;;;7.28;6.58;;;;;;;29.16;53.82;95874.27;1655818;86;21278;-81
2021/06/21 10:22:03;;;;;;;6.80;6.12;;;;;;;29.21;53.25;95868.77;1655596;85;21016;-81
2021/06/21 10:24:32;;;;;;;7.10;6.50;;;;;;;29.25;51.85;95867.81;1655520;87;20920;-81
2021/06/21 10:26:59;;;;;;;7.78;6.95;;;;;;;29.15;53.21;95870.81;1655562;86;21298;-81
2021/06/21 10:29:25;;;;;;;7.90;7.08;;;;;;;29.19;51.85;95869.08;1636507;87;20979;-81
2021/06/21 10:31:51;;;;;;;8.00;7.30;;;;;;;29.29;51.75;95870.68;1655518;86;21349;-81
2021/06/21 10:34:18;;;;;;;7.70;7.00;;;;;;;29.40;53.31;95864.45;1655628;87;21317;-81
2021/06/21 10:36:52;;;;;;;7.85;7.05;;;;;;;29.50;52.65;95865.52;1655696;87;20979;-81
2021/06/21 10:39:26;;;;;;;7.47;6.78;;;;;;;29.56;52.10;95869.05;1662967;86;20922;-81
2021/06/21 10:42:10;;;;;;;10.13;7.12;;;;;;;29.47;52.31;95864.27;1663151;86;20969;-81
2021/06/21 10:44:58;;;;;;;7.83;7.08;;;;;;;29.26;51.93;95864.59;1650594;87;20916;-81
2021/06/21 10:47:38;;;;;;;8.35;7.50;;;;;;;29.19;52.04;95866.41;1662849;86;21286;-81
2021/06/21 10:50:22;;;;;;;7.67;7.00;;;;;;;29.38;53.23;95858.62;1655248;86;20985;-81
2021/06/21 10:52:55;;;;;;;7.40;6.80;;;;;;;29.49;51.93;95861.27;1662815;86;21008;-81
2021/06/21 10:55:32;;;;;;;7.65;6.95;;;;;;;29.65;52.65;95858.34;1615267;88;20997;-81
2021/06/21 10:58:08;;;;;;;7.30;6.67;;;;;;;29.72;53.15;95858.65;1625783;86;20962;-81
2021/06/21 11:00:42;;;;;;;7.33;6.62;;;;;;;29.76;52.14;95860.14;1652545;87;21066;-81
2021/06/21 11:03:34;;;;;;;6.50;5.90;;;;;;;29.81;50.59;95854.08;1636339;87;21270;-80
2021/06/21 11:06:12;;;;;;;6.40;5.90;;;;;;;29.86;51.18;95850.45;1655249;87;21038;-81
2021/06/21 11:08:46;;;;;;;7.50;6.90;;;;;;;29.93;50.90;95844.04;1641316;86;20960;-81
2021/06/21 11:11:44;;;;;;;7.78;7.03;;;;;;;29.93;51.21;95838.69;1663045;86;21273;-81
2021/06/21 11:14:20;;;;;;;6.70;6.10;;;;;;;30.00;50.85;95840.89;1653930;87;20948;-81
2021/06/21 11:16:47;;;;;;;7.28;6.67;;;;;;;30.15;51.36;95837.73;1663088;86;21013;-81
2021/06/21 11:19:25;;;;;;;7.50;6.70;;;;;;;30.19;52.46;95835.98;1663150;86;21358;-81
2021/06/21 11:21:55;;;;;;;7.17;6.47;;;;;;;30.12;50.21;95833.02;1663279;84;20985;-81
2021/06/21 11:24:47;;;;;;;7.28;6.45;;;;;;;30.18;51.27;95829.05;1665436;85;21059;-81
2021/06/21 11:27:20;;;;;;;7.65;6.60;;;;;;;30.21;51.09;95831.09;1670627;86;20933;-81
2021/06/21 11:29:49;;;;;;;7.08;6.47;;;;;;;30.22;50.67;95830.53;1651729;85;20897;-81
2021/06/21 11:32:15;;;;;;;7.37;6.70;;;;;;;30.30;51.91;95833.20;1671008;85;20928;-81
2021/06/21 11:34:54;;;;;;;7.33;6.65;;;;;;;30.32;51.33;95828.30;1676783;84;21241;-81
2021/06/21 11:37:48;;;;;;;6.58;6.08;;;;;;;30.37;50.23;95830.79;1672552;85;20983;-81
2021/06/21 11:40:19;;;;;;;6.70;6.17;;;;;;;30.41;48.91;95825.02;1662531;85;20934;-81
2021/06/21 11:43:06;;;;;;;5.85;5.35;;;;;;;30.46;49.62;95832.89;1672432;85;20947;-81
2021/06/21 11:45:57;;;;;;;7.70;6.33;;;;;;;30.50;46.68;95824.20;1674559;85;20977;-81
2021/06/21 11:48:37;;;;;;;6.67;6.00;;;;;;;30.56;49.03;95815.64;1672638;85;20981;-81